Time;durP1;ratioP1;P1;durP2;ratioP2;P2;SDS_P1;SDS_P2;PMS_P1;PMS_P2;Temp;Humidity;BMP_temperature;BMP_pressure;BME280_temperature;BME280_humidity;BME280_pressure;Samples;Min_cycle;Max_cycle;Signal;HPM_P1;HPM_P2
2021/04/29 00:00:55;;;;;;;;;;;;;;;11.32;81.99;97607.81;5094663;28;20368;-80
2021/04/29 00:03:21;;;;;;;;;;;;;;;11.33;81.32;97607.56;5090978;28;19927;-80
2021/04/29 00:05:47;;;;;;;;;;;;;;;11.36;81.04;97608.19;5091832;28;19927;-80
2021/04/29 00:08:13;;;;;;;;;;;;;;;11.14;81.54;97614.09;5094565;28;19924;-80
2021/04/29 00:13:44;;;;;;;;;;;;;;;11.24;80.88;97602.69;5093137;28;19927;-80
2021/04/29 00:16:11;;;;;;;;;;;;;;;11.08;84.19;97609.56;5094018;28;19942;-81
2021/04/29 00:18:37;;;;;;;;;;;;;;;10.97;83.46;97606.56;5093987;28;19920;-81
2021/04/29 00:21:03;;;;;;;;;;;;;;;10.86;83.60;97609.19;5094394;28;19930;-81
2021/04/29 00:23:29;;;;;;;;;;;;;;;11.04;83.74;97611.09;5094495;28;19946;-81
2021/04/29 00:25:56;;;;;;;;;;;;;;;11.12;83.18;97608.88;5073807;28;19925;-81
2021/04/29 00:28:22;;;;;;;;;;;;;;;11.18;82.03;97609.03;5077715;28;19920;-81
2021/04/29 00:30:48;;;;;;;;;;;;;;;11.16;81.57;97609.25;5094089;28;19958;-81
2021/04/29 00:33:15;;;;;;;;;;;;;;;11.02;82.76;97613.19;5094350;28;19920;-81
2021/04/29 00:35:41;;;;;;;;;;;;;;;10.96;82.79;97604.88;5093065;28;19969;-81
2021/04/29 00:38:07;;;;;;;;;;;;;;;11.05;82.29;97605.41;5093693;28;19967;-81
2021/04/29 00:40:33;;;;;;;;;;;;;;;11.07;82.42;97603.28;5093974;28;19923;-81
2021/04/29 00:42:59;;;;;;;;;;;;;;;11.16;81.87;97606.53;5093718;28;19920;-81
2021/04/29 00:45:33;;;;;;;;;;;;;;;11.13;81.91;97596.13;5122324;27;19969;-81
2021/04/29 00:47:59;;;;;;;;;;;;;;;11.05;82.54;97601.84;5131117;28;19923;-81
2021/04/29 00:50:25;;;;;;;;;;;;;;;11.16;81.50;97604.66;5117812;28;20006;-82
2021/04/29 00:52:52;;;;;;;;;;;;;;;11.17;81.76;97610.94;5109803;28;19924;-82
2021/04/29 00:55:18;;;;;;;;;;;;;;;11.05;82.96;97616.28;5109413;28;19965;-82
2021/04/29 00:57:44;;;;;;;;;;;;;;;11.11;82.53;97618.09;5095369;28;20388;-82
2021/04/29 01:00:11;;;;;;;;;;;;;;;11.06;83.12;97614.41;5090463;28;19924;-82
2021/04/29 01:02:40;;;;;;;;;;;;;;;11.15;82.33;97615.75;5110071;28;19924;-81
2021/04/29 01:05:09;;;;;;;;;;;;;;;11.04;83.66;97619.25;5109983;28;19924;-82
2021/04/29 01:07:39;;;;;;;;;;;;;;;11.17;82.85;97621.81;5110675;28;19932;-82
2021/04/29 01:10:10;;;;;;;;;;;;;;;11.03;83.80;97621.09;5111620;28;19928;-82
2021/04/29 01:12:40;;;;;;;;;;;;;;;11.00;83.70;97623.47;5102701;28;19924;-82
2021/04/29 01:15:06;;;;;;;;;;;;;;;11.07;83.76;97626.94;5108394;28;19932;-81
2021/04/29 01:17:35;;;;;;;;;;;;;;;11.02;84.13;97624.06;5131327;28;20368;-81
2021/04/29 01:20:05;;;;;;;;;;;;;;;11.11;83.38;97626.25;5131103;28;19923;-82
2021/04/29 01:22:34;;;;;;;;;;;;;;;11.23;82.99;97636.38;5131334;28;19924;-82
2021/04/29 01:25:03;;;;;;;;;;;;;;;11.22;83.07;97632.84;5110033;28;19939;-81
2021/04/29 01:27:31;;;;;;;;;;;;;;;11.09;83.30;97633.81;5110457;28;19927;-82
2021/04/29 01:29:57;;;;;;;;;;;;;;;11.07;85.79;97643.25;5110141;28;20422;-81
2021/04/29 01:32:23;;;;;;;;;;;;;;;11.05;85.33;97638.06;5109725;28;19924;-82
2021/04/29 01:34:49;;;;;;;;;;;;;;;11.08;85.45;97643.03;5109855;28;20371;-81
2021/04/29 01:37:18;;;;;;;;;;;;;;;11.08;86.41;97643.03;5110177;28;19934;-81
2021/04/29 01:39:44;;;;;;;;;;;;;;;11.14;85.56;97644.84;5110562;28;20280;-81
2021/04/29 01:42:11;;;;;;;;;;;;;;;11.07;85.54;97641.38;5110169;28;19924;-81
2021/04/29 01:44:38;;;;;;;;;;;;;;;11.06;86.01;97650.56;5107443;28;19924;-81
2021/04/29 01:47:05;;;;;;;;;;;;;;;11.23;85.04;97648.09;5105215;28;19932;-83
2021/04/29 01:49:31;;;;;;;;;;;;;;;11.26;84.49;97650.38;5108411;28;19947;-81
2021/04/29 01:51:57;;;;;;;;;;;;;;;11.27;84.85;97651.19;5100678;28;19932;-81
2021/04/29 01:54:23;;;;;;;;;;;;;;;11.27;84.47;97652.00;5089120;28;19924;-81
2021/04/29 01:56:50;;;;;;;;;;;;;;;11.21;84.87;97650.22;5079967;28;19924;-81
2021/04/29 01:59:16;;;;;;;;;;;;;;;11.22;84.77;97651.88;5076004;28;19929;-81
2021/04/29 02:01:44;;;;;;;;;;;;;;;11.25;84.94;97654.16;5076262;28;20368;-81
2021/04/29 02:04:10;;;;;;;;;;;;;;;11.20;84.86;97656.72;5089978;28;19928;-81
2021/04/29 02:06:37;;;;;;;;;;;;;;;11.25;85.19;97656.88;5103109;28;19924;-80
2021/04/29 02:09:03;;;;;;;;;;;;;;;11.26;84.98;97646.81;5116389;28;19935;-81
2021/04/29 02:11:31;;;;;;;;;;;;;;;11.19;85.66;97662.38;5114965;28;19927;-80
2021/04/29 02:13:59;;;;;;;;;;;;;;;11.33;86.03;97658.44;5099880;28;20014;-80
2021/04/29 02:16:30;;;;;;;;;;;;;;;11.28;86.92;97669.19;5116067;28;19927;-81
2021/04/29 02:19:00;;;;;;;;;;;;;;;11.20;86.52;97677.63;5116180;28;19930;-80
2021/04/29 02:21:27;;;;;;;;;;;;;;;11.30;86.61;97676.03;5100858;28;19924;-81
2021/04/29 02:23:53;;;;;;;;;;;;;;;11.27;87.14;97679.22;5095588;28;19924;-81
2021/04/29 02:26:20;;;;;;;;;;;;;;;11.40;86.33;97674.72;5094565;28;19931;-80
2021/04/29 02:28:46;;;;;;;;;;;;;;;11.27;87.41;97687.38;5096026;28;19923;-80
2021/04/29 02:31:13;;;;;;;;;;;;;;;11.10;86.92;97691.75;5096026;28;19925;-81
2021/04/29 02:33:39;;;;;;;;;;;;;;;11.11;87.88;97699.69;5095258;28;19924;-81
2021/04/29 02:36:07;;;;;;;;;;;;;;;11.22;87.47;97692.69;5095054;28;19931;-82
2021/04/29 02:38:34;;;;;;;;;;;;;;;11.16;87.66;97701.75;5095525;28;19947;-81
2021/04/29 02:41:00;;;;;;;;;;;;;;;11.13;87.29;97700.28;5075119;28;19932;-81
2021/04/29 02:43:27;;;;;;;;;;;;;;;11.07;87.57;97692.22;5074666;28;19979;-81
2021/04/29 02:45:53;;;;;;;;;;;;;;;11.03;87.84;97704.59;5072772;28;19924;-81
2021/04/29 02:48:20;;;;;;;;;;;;;;;11.06;88.42;97706.84;5084753;28;19924;-81
2021/04/29 02:50:47;;;;;;;;;;;;;;;11.06;88.28;97710.41;5094684;28;19935;-81
2021/04/29 02:53:14;;;;;;;;;;;;;;;11.00;88.46;97716.72;5095201;28;20374;-81
2021/04/29 02:55:41;;;;;;;;;;;;;;;10.96;87.95;97724.53;5094182;28;19931;-80
2021/04/29 02:58:08;;;;;;;;;;;;;;;10.96;88.48;97731.84;5095395;28;20291;-81
2021/04/29 03:00:34;;;;;;;;;;;;;;;10.87;89.01;97731.28;5095014;28;19928;-80
2021/04/29 03:03:00;;;;;;;;;;;;;;;10.85;89.04;97733.38;5095141;28;20383;-81
2021/04/29 03:05:26;;;;;;;;;;;;;;;10.92;88.71;97733.34;5093895;28;19928;-81
2021/04/29 03:07:53;;;;;;;;;;;;;;;10.88;88.10;97741.09;5085734;28;19933;-80
2021/04/29 03:10:20;;;;;;;;;;;;;;;10.78;88.76;97755.19;5074455;28;20277;-80
2021/04/29 03:12:46;;;;;;;;;;;;;;;10.81;88.84;97759.38;5073308;28;19924;-81
2021/04/29 03:15:12;;;;;;;;;;;;;;;10.78;88.70;97757.91;5073878;28;20395;-80
2021/04/29 03:17:38;;;;;;;;;;;;;;;10.80;88.78;97758.50;5073967;28;19928;-81
2021/04/29 03:20:06;;;;;;;;;;;;;;;10.71;88.75;97765.28;5074231;28;19928;-80
2021/04/29 03:22:32;;;;;;;;;;;;;;;10.70;89.46;97762.78;5090370;28;19955;-80
2021/04/29 03:24:58;;;;;;;;;;;;;;;10.63;88.72;97779.97;5093095;28;19932;-80
2021/04/29 03:27:26;;;;;;;;;;;;;;;10.57;88.75;97782.75;5094389;28;19928;-80
2021/04/29 03:29:52;;;;;;;;;;;;;;;10.50;88.76;97782.75;5094457;28;20379;-80
2021/04/29 03:32:18;;;;;;;;;;;;;;;10.49;88.95;97786.53;5074214;28;19929;-80
2021/04/29 03:34:44;;;;;;;;;;;;;;;10.51;88.40;97791.75;5073538;28;20284;-80
2021/04/29 03:37:11;;;;;;;;;;;;;;;10.47;88.11;97798.69;5074116;28;20376;-80
2021/04/29 03:39:37;;;;;;;;;;;;;;;10.42;87.74;97810.22;5073868;28;19924;-80
2021/04/29 03:42:06;;;;;;;;;;;;;;;10.38;87.73;97808.97;5077535;28;19927;-81
2021/04/29 03:44:33;;;;;;;;;;;;;;;10.28;87.26;97815.66;5092888;28;19935;-81
2021/04/29 03:47:00;;;;;;;;;;;;;;;10.27;87.08;97811.28;5093657;28;20257;-80
2021/04/29 03:49:26;;;;;;;;;;;;;;;10.23;86.99;97820.06;5093749;28;20425;-80
2021/04/29 03:51:52;;;;;;;;;;;;;;;10.20;86.93;97824.03;5093919;28;19924;-80
2021/04/29 03:54:21;;;;;;;;;;;;;;;10.19;86.65;97826.97;5093366;28;19946;-80
2021/04/29 03:56:47;;;;;;;;;;;;;;;10.20;86.86;97829.47;5081021;28;19924;-81
2021/04/29 03:59:13;;;;;;;;;;;;;;;10.15;86.24;97826.59;5083498;28;19924;-80
2021/04/29 04:01:40;;;;;;;;;;;;;;;10.18;86.28;97828.88;5093983;28;19993;-80
2021/04/29 04:04:06;;;;;;;;;;;;;;;10.19;85.74;97832.41;5093820;28;19924;-80
2021/04/29 04:06:32;;;;;;;;;;;;;;;10.20;86.29;97847.66;5093494;28;20299;-81
2021/04/29 04:08:58;;;;;;;;;;;;;;;10.17;86.35;97850.81;5093816;28;19924;-80
2021/04/29 04:11:24;;;;;;;;;;;;;;;10.14;86.02;97852.06;5107734;28;19924;-80
2021/04/29 04:13:50;;;;;;;;;;;;;;;10.10;86.15;97858.97;5107690;28;19924;-80
2021/04/29 04:16:16;;;;;;;;;;;;;;;10.18;85.18;97861.47;5087934;28;19973;-81
2021/04/29 04:18:43;;;;;;;;;;;;;;;10.08;85.63;97866.50;5087905;28;19925;-80
2021/04/29 04:21:09;;;;;;;;;;;;;;;10.09;84.93;97857.31;5088609;28;19928;-82
2021/04/29 04:23:35;;;;;;;;;;;;;;;10.06;84.49;97861.28;5094143;28;19990;-83
2021/04/29 04:26:02;;;;;;;;;;;;;;;10.06;83.87;97868.59;5081446;28;19925;-83
2021/04/29 04:28:28;;;;;;;;;;;;;;;9.96;85.04;97871.75;5073366;28;19925;-83
2021/04/29 04:30:54;;;;;;;;;;;;;;;9.93;85.40;97872.19;5073126;28;19929;-83
2021/04/29 04:33:20;;;;;;;;;;;;;;;9.99;85.32;97870.50;5073325;28;19931;-83
2021/04/29 04:35:47;;;;;;;;;;;;;;;9.95;84.76;97871.97;5072817;28;20009;-83
2021/04/29 04:38:13;;;;;;;;;;;;;;;9.95;84.27;97874.69;5073121;28;19925;-83
2021/04/29 04:40:39;;;;;;;;;;;;;;;9.95;84.18;97877.41;5091255;28;20444;-83
2021/04/29 04:43:06;;;;;;;;;;;;;;;9.98;83.63;97875.09;5093394;28;19970;-84
2021/04/29 04:45:32;;;;;;;;;;;;;;;10.01;83.77;97881.97;5086520;28;19932;-83
2021/04/29 04:47:58;;;;;;;;;;;;;;;10.06;83.95;97874.03;5073126;28;19959;-83
2021/04/29 04:50:24;;;;;;;;;;;;;;;9.98;83.24;97871.53;5084883;28;19935;-83
2021/04/29 04:52:51;;;;;;;;;;;;;;;10.03;83.75;97872.56;5073379;28;19978;-83
2021/04/29 04:55:27;;;;;;;;;;;;;;;10.01;83.22;97874.69;5091887;28;19924;-82
2021/04/29 04:57:53;;;;;;;;;;;;;;;10.02;84.07;97881.75;5080955;28;20303;-83
2021/04/29 05:00:20;;;;;;;;;;;;;;;10.04;82.91;97879.69;5072703;28;20273;-83
2021/04/29 05:02:48;;;;;;;;;;;;;;;10.11;82.82;97876.94;5087040;28;20567;-83
2021/04/29 05:05:14;;;;;;;;;;;;;;;10.08;82.51;97877.38;5083554;28;19929;-84
2021/04/29 05:07:40;;;;;;;;;;;;;;;10.09;82.94;97879.88;5091538;28;20419;-83
2021/04/29 05:10:08;;;;;;;;;;;;;;;10.24;82.75;97889.66;5082315;28;20369;-83
2021/04/29 05:12:36;;;;;;;;;;;;;;;10.23;81.94;97896.94;5091038;28;19935;-83
2021/04/29 05:15:05;;;;;;;;;;;;;;;10.28;81.82;97899.03;5091231;28;19924;-83
2021/04/29 05:17:33;;;;;;;;;;;;;;;10.29;82.03;97889.84;5090292;28;19924;-84
2021/04/29 05:19:59;;;;;;;;;;;;;;;10.34;81.84;97902.81;5090691;28;19935;-83
2021/04/29 05:22:25;;;;;;;;;;;;;;;10.57;81.50;97905.03;5077240;28;19925;-83
2021/04/29 05:24:51;;;;;;;;;;;;;;;11.15;79.91;97902.19;5072503;28;19950;-83
2021/04/29 05:27:18;;;;;;;;;;;;;;;11.57;77.75;97898.13;5072659;28;20020;-83
2021/04/29 05:29:44;;;;;;;;;;;;;;;12.00;76.53;97898.16;5090387;28;19928;-84
2021/04/29 05:32:14;;;;;;;;;;;;;;;12.35;76.00;97894.84;5096650;28;19931;-84
2021/04/29 05:34:41;;;;;;;;;;;;;;;12.36;75.15;97892.94;5091619;28;19924;-84
2021/04/29 05:37:17;;;;;;;;;;;;;;;12.59;74.46;97905.06;5096713;28;20280;-83
2021/04/29 05:39:46;;;;;;;;;;;;;;;12.49;73.76;97905.59;5096104;28;19931;-84
2021/04/29 05:42:12;;;;;;;;;;;;;;;12.49;74.32;97906.41;5094546;28;20295;-84
2021/04/29 05:44:39;;;;;;;;;;;;;;;12.46;74.47;97911.50;5091016;28;19936;-84
2021/04/29 05:47:05;;;;;;;;;;;;;;;12.31;74.39;97903.69;5075471;28;20291;-84
2021/04/29 05:49:31;;;;;;;;;;;;;;;12.13;74.37;97904.53;5093682;28;19928;-84
2021/04/29 05:51:57;;;;;;;;;;;;;;;12.14;75.29;97901.56;5094068;28;19931;-84
2021/04/29 05:54:33;;;;;;;;;;;;;;;12.12;75.66;97895.53;5078171;28;19925;-84
2021/04/29 05:57:05;;;;;;;;;;;;;;;12.42;75.28;97896.66;5079718;28;19964;-84
2021/04/29 05:59:31;;;;;;;;;;;;;;;12.46;73.79;97895.97;5094520;28;19950;-84
2021/04/29 06:01:58;;;;;;;;;;;;;;;12.24;75.69;97906.50;5107222;28;19924;-84
2021/04/29 06:04:24;;;;;;;;;;;;;;;12.14;75.96;97903.47;5093123;28;20095;-83
2021/04/29 06:06:50;;;;;;;;;;;;;;;12.22;76.27;97905.88;5093536;28;20493;-83
2021/04/29 06:09:17;;;;;;;;;;;;;;;12.43;75.21;97909.22;5092389;28;19925;-83
2021/04/29 06:11:43;;;;;;;;;;;;;;;12.78;73.44;97906.72;5072188;28;19928;-84
2021/04/29 06:14:11;;;;;;;;;;;;;;;13.05;73.07;97903.59;5096081;28;20287;-84
2021/04/29 06:16:37;;;;;;;;;;;;;;;13.42;72.64;97915.25;5091572;28;19931;-84
2021/04/29 06:19:13;;;;;;;;;;;;;;;13.44;71.90;97915.88;5090203;28;19974;-84
2021/04/29 06:21:45;;;;;;;;;;;;;;;13.22;72.26;97912.78;5107850;28;20375;-84
2021/04/29 06:24:11;;;;;;;;;;;;;;;13.51;70.52;97925.84;5078949;28;20400;-83
2021/04/29 06:26:37;;;;;;;;;;;;;;;13.90;69.64;97920.78;5087485;28;19928;-84
2021/04/29 06:29:03;;;;;;;;;;;;;;;14.31;70.33;97925.28;5094995;28;20396;-84
2021/04/29 06:34:16;;;;;;;;;;;;;;;14.85;67.14;97936.00;5065884;28;19978;-83
2021/04/29 06:36:46;;;;;;;;;;;;;;;15.09;65.00;97925.00;5091904;28;20011;-84
2021/04/29 06:39:12;;;;;;;;;;;;;;;14.76;66.87;97918.31;5095245;28;19924;-84
2021/04/29 06:41:38;;;;;;;;;;;;;;;14.91;65.51;97923.28;5101166;28;19977;-85
2021/04/29 06:44:04;;;;;;;;;;;;;;;15.05;65.67;97918.34;5094918;28;19935;-84
2021/04/29 06:46:45;;;;;;;;;;;;;;;15.14;64.11;97932.47;5103360;28;20330;-85
2021/04/29 06:49:11;;;;;;;;;;;;;;;15.06;65.38;97938.34;5114660;28;19924;-85
2021/04/29 06:51:38;;;;;;;;;;;;;;;15.48;64.02;97932.56;5115887;28;19928;-85
2021/04/29 06:54:07;;;;;;;;;;;;;;;15.62;62.17;97935.78;5114143;28;20418;-85
2021/04/29 06:56:34;;;;;;;;;;;;;;;16.02;61.54;97924.69;5095274;28;19974;-85
2021/04/29 06:59:00;;;;;;;;;;;;;;;15.40;60.82;97931.00;5095113;28;19931;-84
2021/04/29 07:01:26;;;;;;;;;;;;;;;15.15;61.56;97937.69;5092959;28;19947;-84
2021/04/29 07:03:52;;;;;;;;;;;;;;;15.07;62.23;97939.97;5089419;28;20376;-84
2021/04/29 07:06:27;;;;;;;;;;;;;;;14.43;62.96;97938.94;5079002;28;20016;-85
2021/04/29 07:08:55;;;;;;;;;;;;;;;13.92;63.53;97932.31;5109271;28;20287;-85
2021/04/29 07:11:21;;;;;;;;;;;;;;;13.71;62.50;97944.63;5090388;28;19928;-85
2021/04/29 07:13:48;;;;;;;;;;;;;;;13.99;62.74;97935.75;5095073;28;19924;-85
2021/04/29 07:16:15;;;;;;;;;;;;;;;14.28;59.90;97941.34;5095157;28;19969;-84
2021/04/29 07:18:47;;;;;;;;;;;;;;;14.73;60.14;97934.41;5095066;28;19924;-84
2021/04/29 07:21:13;;;;;;;;;;;;;;;15.17;58.67;97943.75;5095457;28;19928;-85
2021/04/29 07:23:40;;;;;;;;;;;;;;;15.21;58.89;97933.97;5095387;28;20360;-85
2021/04/29 07:26:07;;;;;;;;;;;;;;;15.70;57.81;97938.09;5095063;28;19963;-85
2021/04/29 07:28:36;;;;;;;;;;;;;;;15.48;56.63;97938.84;5094614;28;19924;-85
2021/04/29 07:31:03;;;;;;;;;;;;;;;14.86;57.46;97945.06;5095095;28;19959;-84
2021/04/29 07:33:29;;;;;;;;;;;;;;;15.02;57.18;97944.31;5094934;28;19931;-85
2021/04/29 07:35:55;;;;;;;;;;;;;;;14.71;57.65;97944.72;5094601;28;19928;-84
2021/04/29 07:38:21;;;;;;;;;;;;;;;14.45;59.28;97953.22;5094507;28;19932;-85
2021/04/29 07:40:47;;;;;;;;;;;;;;;14.40;59.60;97952.25;5094890;28;19924;-84
2021/04/29 07:43:28;;;;;;;;;;;;;;;14.78;59.49;97943.53;5092721;28;19924;-85
2021/04/29 07:45:57;;;;;;;;;;;;;;;14.71;57.50;97942.84;5095889;28;20429;-85
2021/04/29 07:51:27;;;;;;;;;;;;;;;15.29;58.58;97945.63;5092573;28;19931;-85
2021/04/29 07:54:03;;;;;;;;;;;;;;;15.83;56.16;97937.81;5093731;28;19930;-84
2021/04/29 07:56:58;;;;;;;;;;;;;;;15.93;54.55;97943.47;5114002;28;20018;-84
2021/04/29 08:14:42;;;;;;;;;;;;;;;16.17;53.85;97947.94;5093982;28;20011;-85
2021/04/29 08:17:12;;;;;;;;;;;;;;;16.28;54.38;97961.53;5086322;28;19932;-82
2021/04/29 08:19:46;;;;;;;;;;;;;;;15.83;54.09;97962.47;5088286;28;20398;-84
2021/04/29 08:22:21;;;;;;;;;;;;;;;15.60;54.48;97963.44;5086580;28;19925;-84
2021/04/29 08:55:17;;;;;;;;;;;;;;;15.09;55.37;97967.97;5082219;28;20478;-84
2021/04/29 08:57:45;;;;;;;;;;;;;;;14.92;57.77;97962.41;5084923;28;19924;-83
2021/04/29 09:00:12;;;;;;;;;;;;;;;14.65;56.81;97963.78;5092784;28;19924;-84
2021/04/29 09:02:41;;;;;;;;;;;;;;;14.49;58.39;97970.78;5093579;28;19924;-83
2021/04/29 09:05:12;;;;;;;;;;;;;;;13.98;60.50;97980.53;5088857;28;20387;-84
2021/04/29 09:07:38;;;;;;;;;;;;;;;13.79;62.81;97988.81;5096002;28;20398;-83
2021/04/29 09:10:07;;;;;;;;;;;;;;;13.52;63.75;97988.41;5097433;28;19924;-83
2021/04/29 09:12:35;;;;;;;;;;;;;;;13.61;65.49;97989.72;5098664;28;19931;-83
2021/04/29 09:15:37;;;;;;;;;;;;;;;13.52;68.36;98002.06;5106061;28;19932;-84
2021/04/29 09:18:50;;;;;;;;;;;;;;;;;;;;;
2021/04/29 09:21:18;;;;;;;;;;;;;;;13.51;71.14;97992.19;5096043;28;19931;-83
2021/04/29 09:23:45;;;;;;;;;;;;;;;13.35;70.41;97996.41;5097079;28;19924;-84
2021/04/29 09:26:12;;;;;;;;;;;;;;;13.24;68.96;97995.25;5096503;28;20275;-83
2021/04/29 09:28:41;;;;;;;;;;;;;;;13.18;73.38;97998.91;5096310;28;20563;-82
2021/04/29 09:31:12;;;;;;;;;;;;;;;13.06;75.18;97992.56;5098157;28;20444;-84
2021/04/29 09:33:39;;;;;;;;;;;;;;;13.10;72.83;97991.06;5103793;28;19951;-83
2021/04/29 09:36:05;;;;;;;;;;;;;;;12.92;74.89;97997.38;5096737;28;19928;-83
2021/04/29 09:38:33;;;;;;;;;;;;;;;13.02;74.43;98005.00;5096028;28;20025;-83
2021/04/29 09:41:00;;;;;;;;;;;;;;;12.94;75.00;98006.16;5085102;28;19931;-83
2021/04/29 09:43:27;;;;;;;;;;;;;;;12.92;72.70;97997.38;5085080;28;19924;-84
2021/04/29 09:46:01;;;;;;;;;;;;;;;13.07;73.80;97986.88;5082382;28;19931;-83
2021/04/29 09:48:34;;;;;;;;;;;;;;;13.35;74.33;97985.47;5085716;28;20295;-83
2021/04/29 09:51:05;;;;;;;;;;;;;;;13.15;73.78;97993.91;5083975;28;19924;-83
2021/04/29 09:53:41;;;;;;;;;;;;;;;13.45;75.16;97993.13;5096811;28;19947;-83
2021/04/29 09:56:08;;;;;;;;;;;;;;;13.94;74.36;97988.38;5096684;28;19946;-83
2021/04/29 09:58:35;;;;;;;;;;;;;;;14.08;72.50;97991.72;5096777;28;20453;-84
2021/04/29 10:01:04;;;;;;;;;;;;;;;14.31;69.67;97992.78;5096680;28;19930;-84
2021/04/29 10:03:31;;;;;;;;;;;;;;;14.58;71.26;97995.88;5096330;28;19924;-83
2021/04/29 10:05:57;;;;;;;;;;;;;;;14.40;69.76;97996.00;5096364;28;20252;-84
2021/04/29 10:08:26;;;;;;;;;;;;;;;14.63;69.98;98000.66;5096486;28;19959;-84
2021/04/29 10:14:05;;;;;;;;;;;;;;;14.07;70.06;98006.44;5054478;28;19978;-84
2021/04/29 10:16:32;;;;;;;;;;;;;;;14.43;70.42;97998.25;5095543;28;19932;-84
2021/04/29 10:19:00;;;;;;;;;;;;;;;14.75;73.96;97997.91;5080193;28;19932;-84
2021/04/29 10:21:27;;;;;;;;;;;;;;;15.18;69.19;97989.22;5093442;28;19924;-84
2021/04/29 10:29:52;;;;;;;;;;;;;;;16.28;68.01;97985.41;5093088;28;20300;-84
2021/04/29 10:32:27;;;;;;;;;;;;;;;16.45;65.84;97988.13;5095785;28;19924;-84
2021/04/29 10:34:55;;;;;;;;;;;;;;;16.44;63.05;97981.81;5095651;28;19964;-84
2021/04/29 10:45:55;;;;;;;;;;;;;;;16.27;62.97;97992.81;5052085;28;19967;-83
2021/04/29 10:48:39;;;;;;;;;;;;;;;15.77;58.01;97998.25;5050491;28;19936;-84
2021/04/29 10:51:09;;;;;;;;;;;;;;;15.33;60.91;98028.94;5054552;28;20384;-85
2021/04/29 10:53:36;;;;;;;;;;;;;;;14.49;56.22;98047.34;5054595;28;19932;-83
2021/04/29 10:56:03;;;;;;;;;;;;;;;13.28;58.37;98056.50;5053755;28;20002;-84
2021/04/29 10:58:31;;;;;;;;;;;;;;;12.75;59.85;98074.34;5054205;28;19925;-84
2021/04/29 11:01:01;;;;;;;;;;;;;;;12.53;61.38;98071.19;5036543;28;19925;-83
2021/04/29 11:07:02;;;;;;;;;;;;;;;11.24;67.02;98086.91;5053357;28;19935;-85
2021/04/29 11:15:29;;;;;;;;;;;;;;;11.83;69.77;98087.63;4939257;28;19989;-86
2021/04/29 11:21:08;;;;;;;;;;;;;;;12.75;67.10;98074.34;5015127;28;20375;-86
2021/04/29 11:24:12;;;;;;;;;;;;;;;12.91;66.11;98074.78;5045849;28;20546;-86
2021/04/29 11:26:59;;;;;;;;;;;;;;;;;;;;;
2021/04/29 12:11:22;;;;;;;;;;;;;;;13.79;58.22;98035.25;5024351;28;20372;-86
2021/04/29 12:17:15;;;;;;;;;;;;;;;14.26;54.38;98036.41;4954716;28;19933;-88
2021/04/29 12:19:47;;;;;;;;;;;;;;;14.06;54.75;98037.59;5028252;28;20039;-88
2021/04/29 12:22:13;;;;;;;;;;;;;;;14.31;53.90;98037.34;5033164;28;19933;-85
2021/04/29 12:24:43;;;;;;;;;;;;;;;14.71;53.94;98043.22;5031311;28;19926;-85
2021/04/29 12:27:20;;;;;;;;;;;;;;;14.27;51.38;98043.53;5026901;28;19925;-86
2021/04/29 12:29:47;;;;;;;;;;;;;;;14.36;52.71;98053.03;5016388;28;20288;-86
2021/04/29 12:32:17;;;;;;;;;;;;;;;14.05;51.08;98046.03;5020330;28;19936;-86
2021/04/29 12:34:46;;;;;;;;;;;;;;;14.51;51.81;98033.44;5028563;28;19932;-84
2021/04/29 12:37:12;;;;;;;;;;;;;;;14.67;50.20;98037.41;5029325;28;19925;-86
2021/04/29 12:39:40;;;;;;;;;;;;;;;14.29;49.61;98044.16;5028036;28;19929;-86
2021/04/29 12:42:09;;;;;;;;;;;;;;;13.99;51.16;98045.88;5024891;28;19972;-86
2021/04/29 12:44:43;;;;;;;;;;;;;;;13.89;50.90;98048.34;5027538;28;20380;-87
2021/04/29 12:47:10;;;;;;;;;;;;;;;13.74;51.24;98056.13;5016436;28;19937;-85
2021/04/29 12:49:36;;;;;;;;;;;;;;;13.58;53.50;98058.47;5021754;28;19971;-83
2021/04/29 12:52:10;;;;;;;;;;;;;;;13.34;54.49;98073.91;5021569;28;20050;-84
2021/04/29 12:54:36;;;;;;;;;;;;;;;13.23;54.84;98069.16;5024000;28;19979;-84
2021/04/29 12:57:11;;;;;;;;;;;;;;;13.09;55.56;98072.06;5023229;28;19925;-85
2021/04/29 12:59:44;;;;;;;;;;;;;;;13.06;55.19;98077.16;5021780;28;19925;-85
2021/04/29 13:02:11;;;;;;;;;;;;;;;12.88;57.14;98072.53;5024223;28;19932;-85
2021/04/29 13:04:40;;;;;;;;;;;;;;;12.81;59.24;98080.78;5012314;28;19929;-85
2021/04/29 13:07:09;;;;;;;;;;;;;;;12.69;59.54;98086.16;5016994;28;19932;-82
2021/04/29 13:09:36;;;;;;;;;;;;;;;12.65;59.64;98084.94;5013098;28;19929;-82
2021/04/29 13:12:07;;;;;;;;;;;;;;;12.56;60.42;98069.91;5013584;28;19969;-82
2021/04/29 13:14:48;;;;;;;;;;;;;;;12.49;60.55;98080.88;5032251;28;19925;-83
2021/04/29 13:17:22;;;;;;;;;;;;;;;12.43;61.69;98072.75;5020368;28;19995;-82
2021/04/29 13:19:57;;;;;;;;;;;;;;;12.47;61.90;98069.38;5030413;28;19925;-82
2021/04/29 13:22:24;;;;;;;;;;;;;;;12.56;61.87;98075.38;5027999;28;19973;-82
2021/04/29 13:24:50;;;;;;;;;;;;;;;12.83;61.10;98059.56;5018700;28;19929;-82
2021/04/29 13:27:19;;;;;;;;;;;;;;;13.00;58.26;98056.25;5022354;28;19936;-83
2021/04/29 13:29:45;;;;;;;;;;;;;;;13.54;59.19;98048.25;5032611;28;19925;-83
2021/04/29 13:32:11;;;;;;;;;;;;;;;13.96;55.28;98053.72;5032926;28;20300;-82
2021/04/29 13:34:37;;;;;;;;;;;;;;;14.07;55.17;98047.44;5032403;28;19984;-81
2021/04/29 13:37:05;;;;;;;;;;;;;;;14.01;55.19;98044.81;5034648;28;19956;-82
2021/04/29 13:39:42;;;;;;;;;;;;;;;13.95;55.70;98041.94;5035040;28;19925;-82
2021/04/29 13:42:08;;;;;;;;;;;;;;;13.77;53.79;98048.28;5033201;28;19925;-82
2021/04/29 13:44:34;;;;;;;;;;;;;;;13.77;55.24;98047.47;5033581;28;19925;-82
2021/04/29 13:47:00;;;;;;;;;;;;;;;13.80;55.37;98050.59;5029108;28;19925;-82
2021/04/29 13:52:32;;;;;;;;;;;;;;;13.80;55.17;98039.66;5033598;28;19924;-82
2021/04/29 13:54:59;;;;;;;;;;;;;;;13.76;53.28;98045.81;5025410;28;19932;-80
2021/04/29 13:57:27;;;;;;;;;;;;;;;13.81;55.43;98044.03;5032614;28;19933;-81
2021/04/29 13:59:53;;;;;;;;;;;;;;;13.98;55.49;98048.84;5017223;28;20352;-82
2021/04/29 14:02:24;;;;;;;;;;;;;;;14.04;54.05;98049.81;5016765;28;19926;-80
2021/04/29 14:04:50;;;;;;;;;;;;;;;14.13;52.45;98041.00;5028114;28;20528;-80
2021/04/29 14:07:21;;;;;;;;;;;;;;;14.20;54.05;98040.91;5025760;28;19925;-80
2021/04/29 14:09:55;;;;;;;;;;;;;;;14.81;53.21;98033.34;5019142;28;20423;-80
2021/04/29 14:12:22;;;;;;;;;;;;;;;15.60;51.23;98028.31;5027302;28;20406;-81
2021/04/29 14:15:02;;;;;;;;;;;;;;;16.22;49.60;98020.13;5025086;28;20300;-81
2021/04/29 14:17:32;;;;;;;;;;;;;;;16.41;50.72;98015.22;5014888;28;19973;-83
2021/04/29 14:22:40;;;;;;;;;;;;;;;16.62;47.72;98012.81;5031778;28;20277;-81
2021/04/29 14:25:07;;;;;;;;;;;;;;;16.70;47.59;98012.34;5018471;28;19941;-81
2021/04/29 14:27:34;;;;;;;;;;;;;;;16.20;46.55;98018.72;5024976;28;19929;-81
2021/04/29 14:30:00;;;;;;;;;;;;;;;15.77;44.88;98011.94;5024650;28;19933;-81
2021/04/29 14:32:26;;;;;;;;;;;;;;;15.49;46.08;98017.22;5025613;28;19979;-80
2021/04/29 14:34:52;;;;;;;;;;;;;;;15.51;44.56;98009.56;5023748;28;19925;-81
2021/04/29 14:37:18;;;;;;;;;;;;;;;15.42;47.08;97993.78;5018419;28;19932;-82
2021/04/29 14:39:50;;;;;;;;;;;;;;;15.31;47.22;98011.91;5033248;28;20122;-82
2021/04/29 14:42:17;;;;;;;;;;;;;;;15.37;46.73;98009.03;5026750;28;20326;-81
2021/04/29 14:44:44;;;;;;;;;;;;;;;15.30;44.80;98013.00;5020864;28;19933;-81
2021/04/29 14:47:10;;;;;;;;;;;;;;;15.18;45.96;98013.03;5021359;28;19925;-81
2021/04/29 14:49:36;;;;;;;;;;;;;;;15.20;46.55;98010.88;5023814;28;20016;-81
2021/04/29 14:52:05;;;;;;;;;;;;;;;15.31;45.23;98020.97;5020616;28;19925;-81
2021/04/29 14:54:33;;;;;;;;;;;;;;;15.33;44.52;98018.81;5031808;28;19932;-82
2021/04/29 14:57:00;;;;;;;;;;;;;;;15.36;44.05;98020.22;5016060;28;20286;-81
2021/04/29 14:59:27;;;;;;;;;;;;;;;15.43;44.01;98011.84;5026156;28;19936;-82
2021/04/29 15:01:54;;;;;;;;;;;;;;;15.31;44.63;98010.00;5018306;28;19925;-82
2021/04/29 15:04:21;;;;;;;;;;;;;;;15.09;43.75;98011.75;5027757;28;20282;-82
2021/04/29 15:06:47;;;;;;;;;;;;;;;15.04;44.50;98007.00;5019316;28;19925;-81
2021/04/29 15:09:13;;;;;;;;;;;;;;;14.89;45.73;98017.63;5013859;28;20327;-81
2021/04/29 15:11:41;;;;;;;;;;;;;;;14.99;45.48;98006.88;5026423;28;19929;-81